首页
METAR-TAF:

METAR-TAF

机场 :

阿拉马·伊克巴勒国际机场

拉合爾, 巴基斯坦

纬度: 31-31N, 经度: 074-24E, 海拔: 216米

当前天气观测

该预报发布于18分钟前的22:25 UTC
静风
温度 31°C
湿度 59%
气压 1001 hPa
能見度: 5000

METAR: OPLA 222225Z 00000KT 5000 FU NSC 31/22 Q1001 NOSIG RMK QFE975 A29.56

时间: 03:43 (22:43 UTC)

预报

该预报发布于5小时和43分钟前的17:00 UTC
预报有效从22日的 18点(UTC)到 23日的 24点(UTC)
风速8节,风向南转西南
能見度: 4000
散云层高于10000英尺
从 23日的 0400点(UTC)
风速10节,风向西转西南
能見度: 6000
从 23日的 1600点(UTC)
风速6节,风向南转西南
能見度: 4000
烟,

TAF: OPLA 221700Z 2218/2324 20008KT 4000 FU SCT100 TX40/2310Z TN/28/2300Z FM230400 24010KT 6000 NSC FM231600 20006KT 4000 FU NSC

超过4000个机场的气象观测和天气预报(METAR&TAF报告)。

可查询的气象台以黄色和红色小点在地图上表示。

将鼠标移到小点上方,可查看气象台名称。

然后点击查看天气观测和预报。

如需切换地图:点击带黑十字的绿色按钮放大地图;点击带横线的绿色按钮缩小地图;或者点击绿色箭头查看邻近地区的地图。


METAR-TAF: